Aviation Digital Data Service (ADDS)

Output produced by METARs form (0747 UTC 25 April 2014)
found at http://aviationweather.gov/adds/metars/
 
KIAH 250550Z 2506/2612 VRB03KT P6SM SKC 
     FM250900 VRB03KT P6SM MIFG BKN010 
     FM251600 06008KT P6SM FEW035 
     FM252000 13008KT P6SM SKC 
     FM260200 16005KT P6SM SKC